Preston, Washington
Current Conditions -  °F | °C
As of 5:53 AM on Thursday 23 Oct 2014 (Local Time) from KRNT Reporting Station
Light Rain Light Rain  
Wind Chill: 53°   Ceiling: 6500
Heat Index: 53°   Visibility: 7mi
Dew Point: 50°   Wind: 6mph
Humidity: 89%   Direction: 140°SE
Pressure: 29.74"   Gusts: NA
Location:  47.52°N, 121.93°W
Report Text: KRNT 231253Z AUTO 14005KT 7SM -RA BKN065 OVC080 12/10 A2974 RMK AO2 SLP074 P0000 T01170100
Loading
Personal Weather Stations






























Interactive Weather Map
Tropical Storm Tracking
New forecast layout! Learn more

10-Day Weather Forecast

Advertisements
Track Severe Weather on mobile